Time;durP1;ratioP1;P1;durP2;ratioP2;P2;SDS_P1;SDS_P2;PMS_P1;PMS_P2;Temp;Humidity;BMP_temperature;BMP_pressure;BME280_temperature;BME280_humidity;BME280_pressure;Samples;Min_cycle;Max_cycle;Signal;HPM_P1;HPM_P2
2021/05/28 00:00:33;;;;;;;7.07;4.80;;;;;;;5.25;64.23;95952.56;5066136;28;20502;-84
2021/05/28 00:02:59;;;;;;;9.68;5.95;;;;;;;5.36;64.67;95960.38;5048677;28;20101;-83
2021/05/28 00:05:24;;;;;;;6.97;4.47;;;;;;;4.83;65.23;95962.31;5050167;28;20536;-83
2021/05/28 00:07:50;;;;;;;8.25;5.13;;;;;;;4.61;66.37;95973.84;5049108;28;20120;-83
2021/05/28 00:10:15;;;;;;;8.82;5.28;;;;;;;4.75;65.52;95967.38;5027450;28;20195;-83
2021/05/28 00:12:41;;;;;;;6.32;3.90;;;;;;;4.65;66.34;95962.91;5045825;28;20508;-83
2021/05/28 00:15:10;;;;;;;8.63;5.22;;;;;;;4.84;66.20;95967.41;5050670;28;20135;-84
2021/05/28 00:17:36;;;;;;;11.18;6.03;;;;;;;5.19;64.79;95964.50;5064449;28;20093;-83
2021/05/28 00:20:02;;;;;;;12.27;5.90;;;;;;;4.97;65.91;95961.91;5049576;28;20580;-83
2021/05/28 00:22:28;;;;;;;11.25;6.60;;;;;;;5.55;64.04;95954.25;5052200;28;20112;-83
2021/05/28 00:24:53;;;;;;;8.57;5.75;;;;;;;5.12;65.35;95961.56;5051945;28;20555;-83
2021/05/28 00:27:19;;;;;;;9.90;5.57;;;;;;;5.58;63.59;95961.09;5033546;28;20105;-83
2021/05/28 00:29:44;;;;;;;8.88;5.75;;;;;;;5.67;64.37;95956.78;5051589;28;20118;-83
2021/05/28 00:32:10;;;;;;;8.65;6.03;;;;;;;5.93;63.29;95962.34;5052859;28;20080;-83
2021/05/28 00:34:35;;;;;;;9.70;5.85;;;;;;;5.65;62.92;95964.88;5068897;28;20207;-84
2021/05/28 00:37:00;;;;;;;10.30;6.32;;;;;;;5.69;63.49;95966.25;5053934;28;20093;-84
2021/05/28 00:39:26;;;;;;;9.07;5.15;;;;;;;5.47;63.06;95960.25;5056308;28;20094;-83
2021/05/28 00:41:51;;;;;;;8.65;5.28;;;;;;;5.56;63.75;95963.88;5053559;28;20116;-83
2021/05/28 00:44:27;;;;;;;7.80;5.22;;;;;;;5.84;62.02;95965.81;5051159;28;20104;-83
2021/05/28 00:46:52;;;;;;;12.65;6.50;;;;;;;5.87;63.10;95970.84;5065538;28;20105;-83
2021/05/28 00:49:18;;;;;;;12.80;6.75;;;;;;;6.28;61.69;95962.72;5071289;28;20738;-83
2021/05/28 00:51:43;;;;;;;13.38;7.15;;;;;;;6.45;61.34;95961.16;5054875;28;20102;-83
2021/05/28 00:54:12;;;;;;;9.82;6.00;;;;;;;6.56;61.55;95967.28;5052127;28;20585;-83
2021/05/28 00:56:40;;;;;;;11.30;6.25;;;;;;;6.84;60.28;95967.31;5052919;28;20138;-83
2021/05/28 00:59:06;;;;;;;8.82;5.60;;;;;;;6.76;60.62;95976.81;5037170;28;20112;-84
2021/05/28 01:01:32;;;;;;;8.70;5.63;;;;;;;6.44;61.01;95964.78;5052125;28;20081;-84
2021/05/28 01:03:57;;;;;;;11.05;5.93;;;;;;;6.50;61.16;95977.44;5049868;28;20074;-84
2021/05/28 01:06:24;;;;;;;12.85;6.93;;;;;;;6.25;62.07;95970.94;5052245;28;20223;-83
2021/05/28 01:08:50;;;;;;;10.27;5.63;;;;;;;6.42;60.58;95972.00;5048614;28;20593;-83
2021/05/28 01:11:15;;;;;;;8.82;6.20;;;;;;;6.56;60.70;95977.88;5049890;28;20097;-83
2021/05/28 01:13:41;;;;;;;8.32;5.90;;;;;;;6.88;61.01;95982.75;5015112;28;20105;-83
2021/05/28 01:16:06;;;;;;;10.68;6.95;;;;;;;6.53;61.05;95984.25;5049721;28;20077;-83
2021/05/28 01:18:32;;;;;;;11.18;6.25;;;;;;;6.52;61.25;95977.31;5048382;28;20244;-83
2021/05/28 01:20:57;;;;;;;9.25;5.70;;;;;;;6.83;60.94;95984.19;5051632;28;20085;-83
2021/05/28 01:23:23;;;;;;;9.63;6.05;;;;;;;6.47;60.42;95980.34;5033825;28;20143;-83
2021/05/28 01:25:48;;;;;;;9.25;5.97;;;;;;;6.76;60.95;95981.25;5050937;28;20541;-83
2021/05/28 01:28:13;;;;;;;8.35;5.95;;;;;;;7.08;60.36;95987.97;5053215;28;20085;-83
2021/05/28 01:30:39;;;;;;;9.85;6.00;;;;;;;6.82;59.93;95986.00;5033123;28;20168;-83
2021/05/28 01:33:05;;;;;;;11.50;7.13;;;;;;;6.69;60.27;95985.47;5049885;28;20074;-83
2021/05/28 01:35:30;;;;;;;11.32;6.80;;;;;;;6.86;60.54;95983.88;5052303;28;20121;-83
2021/05/28 01:37:56;;;;;;;11.77;6.85;;;;;;;6.71;60.71;95981.72;5034817;28;20130;-83
2021/05/28 01:42:49;;;;;;;11.85;7.07;;;;;;;6.40;60.55;95984.56;4984429;28;20114;-64
2021/05/28 01:45:15;;;;;;;9.77;6.18;;;;;;;6.74;60.21;95986.69;4988774;28;20450;-64
2021/05/28 01:47:40;;;;;;;11.07;7.03;;;;;;;6.56;61.02;95989.25;4986968;28;20169;-64
2021/05/28 01:50:07;;;;;;;9.80;6.63;;;;;;;6.72;60.71;95991.31;5002915;28;20115;-64
2021/05/28 01:52:33;;;;;;;11.70;6.28;;;;;;;6.84;60.39;95991.16;4986521;28;20128;-64
2021/05/28 01:54:58;;;;;;;11.65;7.15;;;;;;;6.66;60.29;95983.94;4987593;28;20106;-63
2021/05/28 01:57:24;;;;;;;9.20;6.88;;;;;;;6.64;61.32;95989.38;4987651;28;20082;-64
2021/05/28 01:59:49;;;;;;;10.32;7.38;;;;;;;6.41;60.62;95986.22;4988452;28;20114;-64
2021/05/28 02:02:15;;;;;;;11.35;7.07;;;;;;;6.29;61.50;95987.38;4997569;28;20122;-63
2021/05/28 02:04:41;;;;;;;11.25;7.50;;;;;;;6.37;60.92;95984.84;5007867;28;20477;-63
2021/05/28 02:07:06;;;;;;;13.38;8.00;;;;;;;6.63;59.95;95987.72;5005702;28;20098;-63
2021/05/28 02:09:32;;;;;;;10.95;6.97;;;;;;;6.66;60.51;95989.25;5005995;28;20483;-64
2021/05/28 02:11:58;;;;;;;11.95;6.88;;;;;;;7.09;60.00;95992.28;5007768;28;20138;-63
2021/05/28 02:14:25;;;;;;;12.65;6.47;;;;;;;7.38;59.55;95988.63;4962939;28;20460;-63
2021/05/28 02:16:51;;;;;;;10.50;7.10;;;;;;;7.62;57.32;95989.88;5006079;28;20136;-64
2021/05/28 02:19:16;;;;;;;10.50;7.07;;;;;;;7.37;58.96;95984.34;5006364;28;20099;-64
2021/05/28 02:21:42;;;;;;;11.48;7.68;;;;;;;7.32;58.03;95989.25;5007124;28;20089;-64
2021/05/28 02:24:11;;;;;;;12.45;7.75;;;;;;;6.97;59.05;96001.41;5004470;28;20075;-64
2021/05/28 02:26:37;;;;;;;9.20;7.10;;;;;;;7.19;58.50;95992.25;5005144;28;20130;-63
2021/05/28 02:29:03;;;;;;;12.07;7.47;;;;;;;7.01;59.84;95990.34;5007356;28;20554;-63
2021/05/28 02:31:28;;;;;;;12.38;7.38;;;;;;;6.52;60.23;95992.38;5007384;28;20106;-64
2021/05/28 02:33:54;;;;;;;14.70;7.70;;;;;;;6.30;60.51;95991.66;5005649;28;20623;-64
2021/05/28 02:36:19;;;;;;;13.23;7.72;;;;;;;6.59;60.35;95998.72;5007240;28;20531;-64
2021/05/28 02:38:44;;;;;;;13.75;7.43;;;;;;;6.91;59.59;96001.97;5027317;28;20110;-64
2021/05/28 02:41:10;;;;;;;11.45;7.53;;;;;;;6.97;60.29;96002.22;5006600;28;20122;-64
2021/05/28 02:43:36;;;;;;;9.95;6.57;;;;;;;7.14;59.92;95994.47;5006665;28;20121;-63
2021/05/28 02:46:02;;;;;;;13.07;8.07;;;;;;;6.74;59.96;95994.63;5006374;28;20193;-63
2021/05/28 02:48:27;;;;;;;11.38;6.80;;;;;;;6.66;61.36;96002.47;5006402;28;20597;-63
2021/05/28 02:50:53;;;;;;;11.93;7.55;;;;;;;6.88;60.33;96003.09;5006533;28;20110;-64
2021/05/28 02:53:18;;;;;;;12.02;7.15;;;;;;;6.56;60.09;95999.84;5005049;28;20078;-64
2021/05/28 02:55:44;;;;;;;9.95;7.05;;;;;;;6.92;60.30;96003.63;5006798;28;20117;-64
2021/05/28 02:58:10;;;;;;;10.73;7.47;;;;;;;7.17;60.13;95996.03;5005288;28;20160;-64
2021/05/28 03:00:35;;;;;;;11.65;7.80;;;;;;;6.95;59.56;96004.19;5006424;28;20090;-64
2021/05/28 03:03:01;;;;;;;12.35;7.15;;;;;;;6.64;59.51;96007.09;5019957;28;20451;-64
2021/05/28 03:05:27;;;;;;;11.68;7.13;;;;;;;6.61;59.92;96008.22;5006886;28;20104;-64
2021/05/28 03:07:52;;;;;;;10.38;6.72;;;;;;;6.53;60.71;96015.19;5006407;28;20106;-64
2021/05/28 03:10:18;;;;;;;12.93;7.85;;;;;;;6.19;60.75;96022.56;5006559;28;20241;-63
2021/05/28 03:12:43;;;;;;;10.95;7.32;;;;;;;6.38;61.06;96015.59;5006256;28;20462;-63
2021/05/28 03:15:10;;;;;;;10.52;7.15;;;;;;;6.16;60.97;96016.72;5021696;28;20467;-63
2021/05/28 03:17:36;;;;;;;11.50;7.18;;;;;;;6.00;61.46;96015.50;5005552;28;20113;-63
2021/05/28 03:20:04;;;;;;;10.73;6.80;;;;;;;5.96;61.12;96014.91;5005482;28;20114;-64
2021/05/28 03:22:35;;;;;;;9.43;5.97;;;;;;;5.78;61.93;96017.41;5005063;28;20114;-64
2021/05/28 03:25:05;;;;;;;9.52;6.50;;;;;;;5.48;62.62;96020.00;5001438;28;20407;-63
2021/05/28 03:27:30;;;;;;;14.57;7.70;;;;;;;5.63;62.07;96019.63;5004211;28;20530;-64
2021/05/28 03:29:56;;;;;;;13.23;7.07;;;;;;;5.20;63.02;96019.81;5006558;28;20098;-63
2021/05/28 03:32:21;;;;;;;9.38;7.07;;;;;;;4.86;64.47;96022.69;5005265;28;20468;-63
2021/05/28 03:34:47;;;;;;;11.30;7.13;;;;;;;4.92;64.63;96027.47;5003734;28;20486;-63
2021/05/28 03:37:12;;;;;;;13.70;7.40;;;;;;;4.76;64.09;96022.66;5006462;28;20082;-63
2021/05/28 03:39:38;;;;;;;13.23;7.35;;;;;;;4.71;65.29;96025.69;5004685;28;20532;-63
2021/05/28 03:42:03;;;;;;;11.57;6.90;;;;;;;4.69;64.49;96024.13;5005914;28;20428;-63
2021/05/28 03:44:29;;;;;;;9.50;6.40;;;;;;;4.59;65.07;96029.34;5006315;28;20590;-63
2021/05/28 03:46:55;;;;;;;13.90;6.72;;;;;;;4.58;65.23;96032.97;5007315;28;20172;-63
2021/05/28 03:49:20;;;;;;;13.40;7.70;;;;;;;4.56;65.59;96032.28;5010106;28;20090;-63
2021/05/28 03:51:46;;;;;;;14.20;7.53;;;;;;;4.65;65.11;96028.84;5008056;28;20098;-63
2021/05/28 03:54:11;;;;;;;12.00;6.90;;;;;;;4.88;64.32;96018.13;5009390;28;20591;-63
2021/05/28 03:56:36;;;;;;;10.07;6.70;;;;;;;5.16;63.60;96023.69;5009848;28;20441;-63
2021/05/28 03:59:02;;;;;;;9.70;6.18;;;;;;;5.60;62.75;96026.03;5009622;28;20110;-63
2021/05/28 04:01:28;;;;;;;12.68;7.35;;;;;;;5.32;62.84;96022.34;5005920;28;20439;-63
2021/05/28 04:03:53;;;;;;;10.00;6.55;;;;;;;5.34;63.31;96010.69;5009392;28;20202;-63
2021/05/28 04:06:18;;;;;;;9.27;6.30;;;;;;;5.20;62.90;96011.88;5009277;28;20460;-64
2021/05/28 04:08:44;;;;;;;9.80;5.80;;;;;;;5.14;62.97;96019.50;5009317;28;20086;-63
2021/05/28 04:11:09;;;;;;;12.55;6.60;;;;;;;5.32;63.40;96012.63;5009405;28;20479;-63
2021/05/28 04:13:35;;;;;;;9.70;5.93;;;;;;;5.41;62.53;96026.00;5008524;28;20546;-63
2021/05/28 04:16:00;;;;;;;8.63;5.50;;;;;;;5.09;63.39;96026.03;5008185;28;20102;-63
2021/05/28 04:18:26;;;;;;;8.82;5.90;;;;;;;5.10;64.09;96026.84;5009149;28;20103;-63
2021/05/28 04:20:52;;;;;;;10.55;6.18;;;;;;;5.37;62.49;96037.78;5007826;28;20511;-63
2021/05/28 04:23:19;;;;;;;8.43;5.43;;;;;;;5.89;62.33;96034.97;5008906;28;20102;-64
2021/05/28 04:25:45;;;;;;;8.73;6.15;;;;;;;5.59;62.74;96031.44;5008873;28;20101;-63
2021/05/28 04:28:11;;;;;;;10.45;5.78;;;;;;;5.99;61.66;96040.25;5008267;28;20067;-63
2021/05/28 04:30:36;;;;;;;6.55;4.57;;;;;;;6.49;59.77;96036.63;5008881;28;20490;-63
2021/05/28 04:33:01;;;;;;;7.07;5.32;;;;;;;6.86;60.07;96036.81;5009340;28;20547;-63
2021/05/28 04:35:27;;;;;;;10.57;5.70;;;;;;;6.75;60.17;96041.31;5008086;28;20572;-63
2021/05/28 04:37:52;;;;;;;9.10;5.38;;;;;;;6.78;60.64;96045.47;5009349;28;20444;-63
2021/05/28 04:40:21;;;;;;;9.55;5.68;;;;;;;7.33;60.13;96059.78;5008140;28;20074;-64
2021/05/28 04:42:46;;;;;;;10.50;6.13;;;;;;;7.58;57.85;96048.66;5008028;28;20130;-64
2021/05/28 04:45:12;;;;;;;9.77;6.07;;;;;;;7.83;56.19;96052.44;5008911;28;20395;-64
2021/05/28 04:47:37;;;;;;;8.25;5.38;;;;;;;7.72;57.64;96064.03;5008234;28;20423;-63
2021/05/28 04:50:03;;;;;;;9.90;5.78;;;;;;;7.78;57.36;96058.16;5007054;28;20102;-63
2021/05/28 04:52:28;;;;;;;10.02;6.15;;;;;;;7.08;59.30;96069.22;5007925;28;20086;-63
2021/05/28 04:54:54;;;;;;;10.77;5.90;;;;;;;7.27;58.75;96063.84;5007628;28;20202;-64
2021/05/28 04:57:20;;;;;;;11.70;6.40;;;;;;;7.85;56.92;96062.88;5007683;28;20089;-64
2021/05/28 04:59:46;;;;;;;9.43;5.72;;;;;;;7.50;56.62;96070.56;5008535;28;20113;-63
2021/05/28 05:02:11;;;;;;;9.18;5.88;;;;;;;7.27;58.28;96069.13;5006189;28;20114;-64
2021/05/28 05:04:36;;;;;;;7.95;5.30;;;;;;;6.95;58.83;96065.09;5008359;28;20090;-63
2021/05/28 05:07:02;;;;;;;11.20;5.47;;;;;;;7.15;58.00;96063.19;4997403;28;20141;-63
2021/05/28 05:09:27;;;;;;;7.75;4.90;;;;;;;6.76;59.91;96060.66;5003468;28;20593;-63
2021/05/28 05:11:53;;;;;;;7.15;4.55;;;;;;;7.15;59.67;96067.66;5004020;28;20551;-64
2021/05/28 05:14:19;;;;;;;7.97;4.75;;;;;;;7.01;58.40;96072.44;5007595;28;20110;-64
2021/05/28 05:16:44;;;;;;;7.80;5.10;;;;;;;6.91;60.15;96076.09;5007550;28;20414;-64
2021/05/28 05:19:10;;;;;;;9.50;4.78;;;;;;;6.68;59.80;96077.25;5007848;28;20107;-64
2021/05/28 05:21:35;;;;;;;6.90;4.60;;;;;;;6.63;59.89;96077.69;4986441;28;20105;-63
2021/05/28 05:24:01;;;;;;;8.65;4.80;;;;;;;6.35;60.42;96084.63;5007406;28;20511;-64
2021/05/28 05:26:26;;;;;;;5.93;4.50;;;;;;;6.37;60.97;96080.03;5007878;28;20489;-63
2021/05/28 05:28:52;;;;;;;6.72;4.65;;;;;;;6.21;60.80;96084.09;5006164;28;20086;-64
2021/05/28 05:31:17;;;;;;;7.85;4.63;;;;;;;6.16;61.23;96083.69;5005585;28;20114;-64
2021/05/28 05:33:43;;;;;;;9.93;4.22;;;;;;;5.66;61.65;96093.34;5002791;28;20074;-63
2021/05/28 05:36:08;;;;;;;5.30;3.78;;;;;;;6.50;60.52;96093.84;5006882;28;20452;-64
2021/05/28 05:38:34;;;;;;;9.00;4.38;;;;;;;6.52;60.25;96095.53;5007507;28;20157;-63
2021/05/28 05:40:59;;;;;;;4.43;3.22;;;;;;;6.28;60.11;96104.66;5005757;28;20573;-63
2021/05/28 05:43:25;;;;;;;8.80;4.43;;;;;;;6.64;60.29;96112.91;5006052;28;20105;-64
2021/05/28 05:45:50;;;;;;;5.90;3.75;;;;;;;6.21;60.97;96120.25;5007455;28;20082;-63
2021/05/28 05:48:16;;;;;;;8.35;4.55;;;;;;;6.36;59.51;96110.13;5005384;28;20074;-63
2021/05/28 05:50:41;;;;;;;7.32;4.32;;;;;;;6.65;59.97;96114.59;5002100;28;20165;-63
2021/05/28 05:53:06;;;;;;;7.53;4.55;;;;;;;6.73;58.43;96119.16;5005469;28;20695;-63
2021/05/28 05:55:32;;;;;;;8.35;4.28;;;;;;;6.46;59.97;96110.94;5005920;28;20115;-64
2021/05/28 05:57:57;;;;;;;8.63;4.25;;;;;;;6.41;60.25;96107.88;5002771;28;20094;-64
2021/05/28 06:00:23;;;;;;;6.63;4.22;;;;;;;6.50;59.77;96104.41;5005957;28;20086;-64
2021/05/28 06:02:48;;;;;;;8.10;4.90;;;;;;;6.81;60.01;96107.88;5002933;28;20114;-63
2021/05/28 06:05:14;;;;;;;7.53;4.80;;;;;;;6.68;59.14;96113.47;5006133;28;20086;-63
2021/05/28 06:07:42;;;;;;;8.05;4.05;;;;;;;7.04;60.19;96108.38;5015101;28;20479;-63
2021/05/28 06:10:09;;;;;;;11.00;5.38;;;;;;;6.94;58.57;96113.69;5001156;28;20593;-63
2021/05/28 06:12:34;;;;;;;9.65;5.10;;;;;;;7.13;57.22;96118.13;5001315;28;20090;-63
2021/05/28 06:14:59;;;;;;;7.00;4.32;;;;;;;7.30;58.10;96117.50;4996107;28;20479;-62
2021/05/28 06:17:25;;;;;;;7.75;4.43;;;;;;;7.22;56.17;96119.06;5001944;28;20082;-62
2021/05/28 06:19:51;;;;;;;8.07;3.80;;;;;;;7.57;56.20;96129.09;4995771;28;20105;-62
2021/05/28 06:22:21;;;;;;;11.57;6.97;;;;;;;7.78;56.14;96131.53;5001276;28;20116;-63
2021/05/28 06:24:47;;;;;;;9.48;5.57;;;;;;;7.60;57.23;96129.66;4997870;28;20082;-63
2021/05/28 06:27:12;;;;;;;6.28;3.83;;;;;;;7.25;59.09;96134.66;4999805;28;20133;-63
2021/05/28 06:29:37;;;;;;;7.25;4.88;;;;;;;7.01;58.66;96135.97;5000598;28;20555;-63
2021/05/28 06:32:03;;;;;;;9.07;4.38;;;;;;;7.08;57.62;96138.06;5002292;28;20086;-63
2021/05/28 06:34:28;;;;;;;13.02;9.45;;;;;;;7.62;58.86;96143.56;5000522;28;20126;-62
2021/05/28 06:36:54;;;;;;;19.67;14.27;;;;;;;8.11;55.43;96141.69;4997900;28;20637;-63
2021/05/28 06:39:19;;;;;;;18.42;11.68;;;;;;;7.95;55.84;96137.88;5000233;28;20117;-63
2021/05/28 06:41:45;;;;;;;10.18;6.72;;;;;;;7.49;57.26;96141.28;4997379;28;20489;-64
2021/05/28 06:44:10;;;;;;;21.27;14.50;;;;;;;8.10;56.38;96140.03;4999416;28;20082;-63
2021/05/28 06:46:35;;;;;;;21.85;16.55;;;;;;;8.74;54.66;96142.59;5002351;28;20109;-64
2021/05/28 06:49:02;;;;;;;20.95;14.90;;;;;;;8.10;55.64;96145.31;4997356;28;20082;-64
2021/05/28 06:51:27;;;;;;;15.65;10.30;;;;;;;8.21;56.01;96150.41;5000288;28;20129;-63
2021/05/28 06:53:52;;;;;;;27.10;17.58;;;;;;;7.86;57.09;96152.84;5001838;28;20129;-63
2021/05/28 06:56:18;;;;;;;11.95;6.88;;;;;;;8.14;54.70;96150.19;5002501;28;20439;-63
2021/05/28 06:58:48;;;;;;;22.70;15.02;;;;;;;8.16;54.92;96155.34;5002284;28;20476;-63
2021/05/28 07:01:14;;;;;;;14.57;8.52;;;;;;;8.85;53.62;96146.00;4995515;28;20564;-63
2021/05/28 07:03:39;;;;;;;14.57;9.43;;;;;;;8.54;54.01;96148.06;5001389;28;20106;-63
2021/05/28 07:06:04;;;;;;;34.90;26.67;;;;;;;9.18;53.79;96148.94;4999141;28;20125;-63
2021/05/28 07:08:30;;;;;;;14.85;11.32;;;;;;;9.12;52.56;96144.25;4999516;28;20082;-63
2021/05/28 07:10:55;;;;;;;16.27;10.23;;;;;;;8.96;52.96;96151.09;4999502;28;20241;-65
2021/05/28 07:13:21;;;;;;;17.70;12.27;;;;;;;8.77;52.98;96152.09;5001896;28;20086;-63
2021/05/28 07:15:46;;;;;;;10.27;7.38;;;;;;;7.43;54.19;96149.81;5001969;28;20129;-63
2021/05/28 07:18:12;;;;;;;13.63;8.43;;;;;;;8.65;53.94;96141.72;5002579;28;20132;-63
2021/05/28 07:20:38;;;;;;;18.27;13.52;;;;;;;8.37;53.69;96152.38;5003190;28;20082;-63
2021/05/28 07:23:03;;;;;;;21.55;15.82;;;;;;;8.52;52.13;96150.06;5006210;28;20471;-63
2021/05/28 07:25:28;;;;;;;15.00;10.25;;;;;;;9.20;52.50;96150.44;5004589;28;20136;-64
2021/05/28 07:27:54;;;;;;;10.73;7.22;;;;;;;8.99;53.05;96156.13;5004895;28;20110;-63
2021/05/28 07:30:20;;;;;;;18.55;11.82;;;;;;;8.53;54.82;96156.19;5010723;28;20114;-64
2021/05/28 07:32:45;;;;;;;21.30;12.98;;;;;;;8.71;53.98;96156.19;5004554;28;20161;-63
2021/05/28 07:35:11;;;;;;;16.73;10.07;;;;;;;8.86;53.14;96160.94;5001847;28;20122;-63
2021/05/28 07:37:36;;;;;;;28.23;18.55;;;;;;;8.93;54.16;96159.34;4999557;28;20597;-63
2021/05/28 07:40:03;;;;;;;24.15;17.02;;;;;;;9.14;52.41;96160.84;4994035;28;20149;-63
2021/05/28 07:42:29;;;;;;;24.77;16.65;;;;;;;9.39;50.25;96166.34;4993924;28;20149;-63
2021/05/28 07:44:54;;;;;;;12.40;8.40;;;;;;;9.74;51.14;96167.19;5015348;28;20105;-63
2021/05/28 07:47:20;;;;;;;18.15;12.32;;;;;;;8.87;51.48;96174.06;4995015;28;20102;-63
2021/05/28 07:49:45;;;;;;;11.68;7.20;;;;;;;10.08;51.35;96171.69;4996797;28;20120;-64
2021/05/28 07:52:11;;;;;;;13.32;6.72;;;;;;;10.28;48.27;96174.06;4998984;28;20083;-63
2021/05/28 07:54:36;;;;;;;14.40;9.05;;;;;;;10.03;49.93;96181.09;4997307;28;20132;-63
2021/05/28 07:57:03;;;;;;;17.98;11.25;;;;;;;9.30;52.34;96178.72;4994865;28;20086;-63
2021/05/28 07:59:28;;;;;;;14.77;8.93;;;;;;;9.39;49.89;96184.94;5003765;28;20098;-63
2021/05/28 08:01:54;;;;;;;28.08;16.92;;;;;;;10.37;49.17;96177.56;5004320;28;20133;-63
2021/05/28 08:04:19;;;;;;;16.27;11.63;;;;;;;10.92;48.38;96171.81;5002620;28;20085;-63
2021/05/28 08:06:44;;;;;;;25.23;17.50;;;;;;;10.28;49.91;96165.22;5004054;28;20110;-63
2021/05/28 08:09:10;;;;;;;20.42;11.25;;;;;;;10.91;48.34;96164.81;5006532;28;20078;-63
2021/05/28 08:11:35;;;;;;;35.15;25.20;;;;;;;10.82;48.47;96166.66;5005459;28;20110;-64
2021/05/28 08:14:01;;;;;;;27.02;18.30;;;;;;;11.29;48.61;96177.66;5001981;28;20677;-64
2021/05/28 08:16:26;;;;;;;37.28;26.95;;;;;;;12.09;47.20;96175.94;5003952;28;20078;-66
2021/05/28 08:18:52;;;;;;;16.13;11.35;;;;;;;12.17;43.38;96180.38;5003821;28;20138;-66
2021/05/28 08:21:18;;;;;;;13.63;8.63;;;;;;;12.30;43.23;96177.16;5003363;28;20381;-65
2021/05/28 08:23:43;;;;;;;27.58;19.55;;;;;;;12.54;44.66;96180.69;5002433;28;20993;-65
2021/05/28 08:26:09;;;;;;;34.38;24.52;;;;;;;12.06;45.55;96173.59;5008440;28;20121;-79
2021/05/28 08:28:35;;;;;;;27.60;18.75;;;;;;;11.53;46.81;96176.78;4998236;28;20090;-78
2021/05/28 08:31:03;;;;;;;16.20;10.25;;;;;;;11.71;45.18;96165.03;5010561;28;20529;-77
2021/05/28 08:33:28;;;;;;;18.13;12.85;;;;;;;12.19;45.54;96167.72;5005252;28;20614;-78
2021/05/28 08:35:54;;;;;;;11.18;6.68;;;;;;;12.43;44.84;96163.25;4990671;28;20113;-77
2021/05/28 08:38:19;;;;;;;5.72;3.33;;;;;;;13.15;44.07;96160.38;5004190;28;20110;-77
2021/05/28 08:40:45;;;;;;;20.67;14.02;;;;;;;13.04;43.77;96164.31;4991431;28;20110;-77
2021/05/28 08:43:10;;;;;;;27.77;19.17;;;;;;;13.73;43.96;96167.81;5007703;28;20550;-78
2021/05/28 08:45:43;;;;;;;22.58;15.13;;;;;;;14.17;41.19;96163.47;5010806;28;20101;-78
2021/05/28 08:48:10;;;;;;;20.48;12.25;;;;;;;13.68;41.24;96165.72;5002980;28;20185;-79
2021/05/28 08:50:36;;;;;;;19.55;13.65;;;;;;;13.26;39.67;96175.97;5005353;28;20137;-79
2021/05/28 08:53:05;;;;;;;5.47;3.40;;;;;;;13.93;38.02;96176.16;5008116;28;20090;-79
2021/05/28 08:55:30;;;;;;;18.88;12.18;;;;;;;14.65;41.12;96164.81;4990385;28;20118;-80
2021/05/28 08:57:56;;;;;;;10.15;7.07;;;;;;;15.13;38.61;96176.00;5014147;28;20679;-79
2021/05/28 09:00:23;;;;;;;3.72;2.03;;;;;;;15.76;38.55;96164.50;4993297;28;20613;-66
2021/05/28 09:02:49;;;;;;;6.57;5.03;;;;;;;16.57;37.83;96180.16;5000285;28;20152;-78
2021/05/28 09:05:23;;;;;;;9.15;6.25;;;;;;;16.37;36.16;96173.69;5006235;28;20088;-79
2021/05/28 09:07:59;;;;;;;4.45;2.50;;;;;;;15.63;36.05;96181.34;4997656;28;20232;-78
2021/05/28 09:10:28;;;;;;;9.63;5.63;;;;;;;16.02;37.21;96172.91;5013745;28;20106;-79
2021/05/28 09:12:54;;;;;;;4.15;1.90;;;;;;;16.10;32.90;96162.81;5003758;28;20603;-78
2021/05/28 09:15:20;;;;;;;4.57;1.45;;;;;;;16.43;33.40;96169.38;4970135;28;20158;-77
2021/05/28 09:17:50;;;;;;;10.55;5.72;;;;;;;16.53;35.82;96174.38;4986836;28;20168;-77
2021/05/28 09:20:18;;;;;;;2.78;2.25;;;;;;;16.66;35.77;96173.56;5004243;28;20515;-78
2021/05/28 09:22:43;;;;;;;13.18;8.13;;;;;;;15.49;35.66;96167.81;4980724;28;20470;-78
2021/05/28 09:25:09;;;;;;;4.93;3.25;;;;;;;15.45;36.65;96174.59;4987135;28;20074;-78
2021/05/28 09:27:37;;;;;;;7.55;5.72;;;;;;;16.07;35.78;96167.75;5004683;28;20952;-78
2021/05/28 09:30:02;;;;;;;2.67;1.58;;;;;;;16.79;34.48;96167.38;4986708;28;20106;-77
2021/05/28 09:32:28;;;;;;;14.05;10.65;;;;;;;16.83;34.85;96165.13;5003891;28;20554;-77
2021/05/28 09:34:54;;;;;;;15.85;9.30;;;;;;;16.97;34.09;96174.84;4984343;28;20559;-79
2021/05/28 09:37:19;;;;;;;5.50;3.13;;;;;;;15.45;35.29;96174.59;5005947;28;20090;-78
2021/05/28 09:39:44;;;;;;;7.32;4.70;;;;;;;15.48;35.44;96171.53;4980386;28;20102;-78
2021/05/28 09:42:26;;;;;;;9.13;5.45;;;;;;;14.11;38.65;96179.47;5017690;28;20129;-78
2021/05/28 09:44:53;;;;;;;16.17;11.73;;;;;;;13.62;37.78;96179.81;4998719;28;20090;-78
2021/05/28 09:47:18;;;;;;;2.67;1.90;;;;;;;13.78;36.17;96172.63;4992035;28;20745;-78
2021/05/28 09:49:51;;;;;;;9.05;6.28;;;;;;;13.52;36.95;96174.75;5004526;28;20207;-77
2021/05/28 09:53:13;;;;;;;5.15;4.07;;;;;;;14.04;38.86;96174.84;5019731;28;20197;-78
2021/05/28 09:55:40;;;;;;;4.28;2.42;;;;;;;15.67;35.77;96165.69;4999377;28;20562;-77
2021/05/28 09:58:06;;;;;;;11.88;8.35;;;;;;;16.38;35.27;96171.81;5002461;28;20109;-76
2021/05/28 10:00:34;;;;;;;8.85;5.35;;;;;;;16.99;33.80;96162.03;5004545;28;20082;-79
2021/05/28 10:03:14;;;;;;;3.63;1.70;;;;;;;17.71;33.01;96165.91;5020061;28;20193;-79
2021/05/28 10:05:44;;;;;;;5.28;3.50;;;;;;;17.94;32.23;96161.97;4987820;28;20078;-79
2021/05/28 10:08:11;;;;;;;3.33;2.40;;;;;;;18.44;31.76;96149.72;5005449;28;20443;-80
2021/05/28 10:10:39;;;;;;;3.80;1.65;;;;;;;18.77;32.35;96140.63;5007143;28;20317;-80
2021/05/28 10:13:10;;;;;;;9.18;6.30;;;;;;;18.20;31.56;96162.91;4989756;28;20082;-79
2021/05/28 10:15:56;;;;;;;10.27;7.55;;;;;;;17.41;32.84;96158.34;4988682;28;20102;-78
2021/05/28 10:18:22;;;;;;;5.40;2.83;;;;;;;13.72;34.22;96166.16;5003897;28;20116;-78
2021/05/28 10:20:49;;;;;;;12.30;7.95;;;;;;;14.48;35.24;96155.38;5019726;28;20456;-77
2021/05/28 10:23:15;;;;;;;5.07;3.97;;;;;;;15.78;34.47;96153.56;4968235;28;20102;-77
2021/05/28 10:25:41;;;;;;;7.47;4.90;;;;;;;16.89;32.71;96157.03;4986650;28;20181;-79
2021/05/28 10:28:08;;;;;;;10.57;7.38;;;;;;;17.45;32.08;96143.41;4979627;28;20075;-79
2021/05/28 10:30:50;;;;;;;7.43;4.80;;;;;;;17.59;31.75;96144.22;5004163;28;20106;-79
2021/05/28 10:33:25;;;;;;;5.28;4.25;;;;;;;18.27;30.48;96147.53;4991195;28;20106;-80
2021/05/28 10:35:58;;;;;;;3.90;1.95;;;;;;;18.67;29.80;96146.50;4990015;28;20110;-80
2021/05/28 10:38:29;;;;;;;3.50;2.88;;;;;;;18.78;30.38;96139.63;4978414;28;20690;-80
2021/05/28 10:41:21;;;;;;;2.38;2.15;;;;;;;18.97;28.46;96136.16;5004593;28;20126;-79
2021/05/28 10:43:53;;;;;;;5.57;3.22;;;;;;;17.86;29.66;96152.25;4966166;28;20193;-79
2021/05/28 10:46:20;;;;;;;6.90;5.13;;;;;;;18.15;31.10;96141.19;4998874;28;20204;-78
2021/05/28 10:48:46;;;;;;;9.83;6.03;;;;;;;18.08;30.98;96145.78;5003421;28;20109;-78
2021/05/28 10:51:27;;;;;;;5.40;3.92;;;;;;;18.34;29.96;96149.38;5003721;28;20105;-77
2021/05/28 10:53:55;;;;;;;9.65;6.72;;;;;;;18.92;29.93;96139.50;5002703;28;20082;-78
2021/05/28 10:56:35;;;;;;;4.88;2.00;;;;;;;18.89;30.23;96134.53;5010217;28;20070;-78
2021/05/28 10:59:39;;;;;;;2.63;1.80;;;;;;;19.08;29.52;96146.25;5007129;28;20105;-79
2021/05/28 11:02:04;;;;;;;8.98;6.82;;;;;;;19.33;27.78;96140.88;5004364;28;20117;-78
2021/05/28 11:04:31;;;;;;;9.02;6.65;;;;;;;19.98;27.75;96129.81;5013615;28;20078;-79
2021/05/28 11:09:38;;;;;;;2.22;1.70;;;;;;;20.78;27.25;96126.31;5015123;28;20137;-79
2021/05/28 11:12:06;;;;;;;1.73;1.50;;;;;;;21.37;25.59;96134.53;5012015;28;20155;-78
2021/05/28 11:14:35;;;;;;;4.05;2.92;;;;;;;21.80;26.85;96126.25;4988414;28;20116;-70
2021/05/28 11:17:00;;;;;;;5.85;5.05;;;;;;;21.87;26.36;96129.66;5027426;28;20094;-65
2021/05/28 11:19:26;;;;;;;6.60;5.27;;;;;;;22.02;26.50;96133.78;5012090;28;20114;-66
2021/05/28 11:22:05;;;;;;;8.98;6.78;;;;;;;22.24;24.59;96127.72;5011272;28;20321;-65
2021/05/28 11:24:45;;;;;;;11.32;8.48;;;;;;;22.23;25.76;96128.78;5011558;28;20072;-65
2021/05/28 11:27:34;;;;;;;5.65;4.38;;;;;;;22.25;25.41;96123.94;5012652;28;20474;-65
2021/05/28 11:30:02;;;;;;;9.00;6.55;;;;;;;22.15;25.87;96128.09;5001009;28;20122;-65
2021/05/28 11:32:35;;;;;;;8.45;5.88;;;;;;;22.01;23.64;96122.13;5011034;28;20442;-65
2021/05/28 11:35:16;;;;;;;11.52;7.93;;;;;;;21.85;26.37;96123.66;5010774;28;20216;-65
2021/05/28 11:37:44;;;;;;;7.22;5.43;;;;;;;21.50;26.13;96122.66;5012622;28;20134;-65